createdAt,value
2022-09-23T00:00:48.871Z,100.00
2022-09-23T00:03:16.191Z,100.00
2022-09-23T00:05:43.024Z,100.00
2022-09-23T00:08:11.241Z,100.00
2022-09-23T00:11:27.712Z,100.00
2022-09-23T00:13:58.682Z,100.00
2022-09-23T00:16:33.829Z,100.00
2022-09-23T00:19:01.606Z,100.00
2022-09-23T00:21:28.111Z,100.00
2022-09-23T00:23:54.546Z,100.00
2022-09-23T00:26:21.595Z,100.00
2022-09-23T00:28:48.975Z,100.00
2022-09-23T00:31:20.980Z,100.00
2022-09-23T00:33:47.663Z,100.00
2022-09-23T00:36:18.002Z,100.00
2022-09-23T00:38:44.394Z,100.00
2022-09-23T00:41:11.785Z,100.00
2022-09-23T00:43:51.573Z,100.00
2022-09-23T00:46:39.163Z,100.00
2022-09-23T00:49:08.980Z,100.00
2022-09-23T00:51:38.610Z,100.00
2022-09-23T00:54:06.334Z,100.00
2022-09-23T00:56:33.251Z,100.00
2022-09-23T00:59:00.357Z,100.00
2022-09-23T01:01:26.795Z,100.00
2022-09-23T01:03:54.377Z,100.00
2022-09-23T01:06:20.852Z,100.00
2022-09-23T01:08:47.765Z,100.00
2022-09-23T01:11:35.981Z,100.00
2022-09-23T01:14:32.572Z,100.00
2022-09-23T01:17:07.384Z,100.00
2022-09-23T01:19:36.865Z,100.00
2022-09-23T01:22:11.814Z,100.00
2022-09-23T01:25:10.706Z,100.00
2022-09-23T01:27:51.298Z,100.00
2022-09-23T01:30:47.523Z,100.00
2022-09-23T01:33:22.214Z,100.00
2022-09-23T01:36:09.501Z,100.00
2022-09-23T01:38:40.743Z,100.00
2022-09-23T01:41:19.387Z,100.00
2022-09-23T01:44:02.227Z,100.00
2022-09-23T01:46:34.036Z,100.00
2022-09-23T01:49:19.511Z,100.00
2022-09-23T01:51:48.291Z,100.00
2022-09-23T01:54:25.104Z,100.00
2022-09-23T01:56:58.953Z,100.00
2022-09-23T01:59:30.248Z,100.00
2022-09-23T02:01:59.107Z,100.00
2022-09-23T02:04:32.375Z,100.00
2022-09-23T02:07:02.036Z,100.00
2022-09-23T02:09:31.943Z,100.00
2022-09-23T02:12:00.691Z,100.00
2022-09-23T02:14:58.590Z,100.00
2022-09-23T02:17:40.423Z,100.00
2022-09-23T02:20:07.341Z,100.00
2022-09-23T02:22:41.316Z,100.00
2022-09-23T02:25:08.803Z,100.00
2022-09-23T02:27:50.748Z,100.00
2022-09-23T02:30:21.330Z,100.00
2022-09-23T02:32:53.729Z,100.00
2022-09-23T02:35:24.426Z,100.00
2022-09-23T02:38:00.845Z,100.00
2022-09-23T02:40:39.110Z,100.00
2022-09-23T02:43:22.215Z,100.00
2022-09-23T02:45:48.654Z,100.00
2022-09-23T02:48:22.786Z,100.00
2022-09-23T02:50:49.260Z,100.00
2022-09-23T02:53:16.137Z,100.00
2022-09-23T02:55:42.843Z,100.00
2022-09-23T02:58:09.378Z,100.00
2022-09-23T03:01:02.680Z,100.00
2022-09-23T03:03:53.749Z,100.00
2022-09-23T03:06:46.761Z,100.00
2022-09-23T03:09:18.870Z,100.00
2022-09-23T03:11:49.157Z,100.00
2022-09-23T03:14:21.942Z,100.00
2022-09-23T03:17:21.956Z,100.00
2022-09-23T03:20:03.256Z,100.00
2022-09-23T03:22:42.760Z,100.00
2022-09-23T03:25:12.203Z,100.00
2022-09-23T03:27:39.012Z,100.00
2022-09-23T03:30:06.529Z,100.00
2022-09-23T03:32:32.921Z,100.00
2022-09-23T03:35:00.622Z,100.00
2022-09-23T03:37:41.769Z,100.00
2022-09-23T03:40:33.495Z,100.00
2022-09-23T03:43:01.318Z,100.00
2022-09-23T03:45:32.119Z,100.00
2022-09-23T03:47:58.536Z,100.00
2022-09-23T03:50:24.939Z,100.00
2022-09-23T03:52:51.330Z,100.00
2022-09-23T03:55:18.565Z,100.00
2022-09-23T03:57:45.278Z,100.00
2022-09-23T04:00:12.343Z,100.00
2022-09-23T04:02:39.108Z,100.00
2022-09-23T04:05:06.397Z,100.00
2022-09-23T04:07:32.802Z,100.00
2022-09-23T04:09:59.197Z,100.00
2022-09-23T04:12:25.570Z,100.00
2022-09-23T04:14:51.953Z,100.00
2022-09-23T04:17:18.340Z,100.00
2022-09-23T04:19:45.112Z,100.00
2022-09-23T04:22:11.506Z,100.00
2022-09-23T04:24:37.952Z,100.00
2022-09-23T04:27:04.499Z,100.00
2022-09-23T04:29:30.890Z,100.00
2022-09-23T04:31:57.774Z,100.00
2022-09-23T04:34:24.311Z,100.00
2022-09-23T04:36:50.843Z,100.00
2022-09-23T04:39:17.311Z,100.00
2022-09-23T04:41:44.251Z,100.00
2022-09-23T04:44:13.976Z,100.00
2022-09-23T04:46:46.645Z,100.00
2022-09-23T04:49:14.031Z,100.00
2022-09-23T04:51:43.694Z,100.00
2022-09-23T04:54:11.773Z,100.00
2022-09-23T04:56:38.223Z,100.00
2022-09-23T04:59:04.622Z,100.00
2022-09-23T05:01:32.060Z,100.00
2022-09-23T05:04:02.315Z,100.00
2022-09-23T05:06:29.598Z,100.00
2022-09-23T05:08:56.877Z,100.00
2022-09-23T05:11:24.116Z,100.00
2022-09-23T05:13:51.878Z,100.00
2022-09-23T05:16:18.726Z,100.00
2022-09-23T05:18:45.533Z,100.00
2022-09-23T05:21:13.235Z,100.00
2022-09-23T05:23:40.562Z,100.00
2022-09-23T05:26:08.680Z,100.00
2022-09-23T05:28:35.181Z,100.00
2022-09-23T05:31:20.616Z,100.00
2022-09-23T05:33:54.613Z,100.00
2022-09-23T05:36:21.602Z,100.00
2022-09-23T05:38:49.790Z,100.00
2022-09-23T05:41:16.371Z,100.00
2022-09-23T05:43:42.835Z,100.00
2022-09-23T05:46:28.694Z,100.00
2022-09-23T05:48:59.896Z,100.00
2022-09-23T05:51:30.901Z,100.00
2022-09-23T05:54:02.724Z,100.00
2022-09-23T05:56:29.258Z,100.00
2022-09-23T05:58:57.454Z,100.00
2022-09-23T06:01:28.381Z,100.00
2022-09-23T06:03:55.859Z,100.00
2022-09-23T06:06:28.860Z,100.00
2022-09-23T06:08:55.340Z,100.00
2022-09-23T06:11:21.743Z,100.00
2022-09-23T06:13:49.263Z,100.00
2022-09-23T06:16:15.864Z,100.00
2022-09-23T06:18:43.525Z,100.00
2022-09-23T06:21:14.645Z,100.00
2022-09-23T06:23:42.154Z,100.00
2022-09-23T06:26:10.156Z,100.00
2022-09-23T06:28:37.487Z,100.00
2022-09-23T06:31:07.615Z,100.00
2022-09-23T06:33:37.567Z,100.00
2022-09-23T06:36:05.389Z,100.00
2022-09-23T06:38:34.022Z,100.00
2022-09-23T06:41:00.910Z,100.00
2022-09-23T06:43:27.295Z,100.00
2022-09-23T06:45:57.128Z,100.00
2022-09-23T06:48:26.975Z,100.00
2022-09-23T06:50:53.819Z,100.00
2022-09-23T06:53:23.639Z,100.00
2022-09-23T06:55:59.854Z,100.00
2022-09-23T06:58:26.836Z,100.00
2022-09-23T07:00:54.036Z,100.00
2022-09-23T07:03:22.039Z,100.00
2022-09-23T07:05:48.448Z,100.00
2022-09-23T07:08:14.830Z,100.00
2022-09-23T07:10:41.205Z,100.00
2022-09-23T07:13:07.595Z,100.00
2022-09-23T07:15:34.023Z,100.00
2022-09-23T07:18:00.484Z,100.00
2022-09-23T07:20:26.854Z,100.00
2022-09-23T07:22:53.233Z,100.00
2022-09-23T07:25:19.901Z,100.00
2022-09-23T07:27:47.338Z,100.00
2022-09-23T07:30:23.503Z,100.00
2022-09-23T07:32:52.091Z,100.00
2022-09-23T07:35:18.951Z,100.00
2022-09-23T07:37:46.050Z,100.00
2022-09-23T07:40:12.638Z,100.00
2022-09-23T07:42:40.799Z,100.00
2022-09-23T07:45:08.972Z,100.00
2022-09-23T07:47:35.695Z,100.00
2022-09-23T07:50:02.152Z,100.00
2022-09-23T07:52:28.529Z,100.00
2022-09-23T07:54:54.893Z,100.00
2022-09-23T07:57:21.324Z,100.00
2022-09-23T07:59:47.711Z,100.00
2022-09-23T08:02:16.311Z,100.00
2022-09-23T08:04:42.780Z,100.00
2022-09-23T08:07:09.597Z,100.00
2022-09-23T08:09:41.255Z,100.00
2022-09-23T08:12:12.728Z,100.00
2022-09-23T08:14:42.119Z,100.00
2022-09-23T08:17:08.554Z,100.00
2022-09-23T08:19:35.093Z,100.00
2022-09-23T08:22:04.233Z,100.00
2022-09-23T08:24:33.690Z,100.00
2022-09-23T08:27:00.141Z,100.00
2022-09-23T08:29:26.703Z,100.00
2022-09-23T08:31:53.281Z,100.00
2022-09-23T08:34:20.641Z,100.00
2022-09-23T08:36:47.175Z,100.00
2022-09-23T08:39:15.315Z,100.00
2022-09-23T08:41:58.403Z,100.00
2022-09-23T08:44:26.652Z,100.00
2022-09-23T08:47:04.706Z,100.00
2022-09-23T08:49:33.362Z,100.00
2022-09-23T08:52:00.066Z,100.00
2022-09-23T08:54:27.667Z,100.00
2022-09-23T08:56:56.075Z,100.00
2022-09-23T08:59:51.895Z,100.00
2022-09-23T09:02:19.323Z,100.00
2022-09-23T09:04:47.619Z,100.00
2022-09-23T09:07:36.175Z,100.00
2022-09-23T09:10:06.572Z,100.00
2022-09-23T09:12:44.382Z,100.00
2022-09-23T09:15:13.085Z,100.00
2022-09-23T09:18:04.046Z,100.00
2022-09-23T09:21:00.509Z,100.00
2022-09-23T09:23:43.744Z,100.00
2022-09-23T09:26:39.632Z,100.00
2022-09-23T09:29:33.789Z,100.00
2022-09-23T09:31:57.738Z,100.00
2022-09-23T09:34:24.145Z,100.00
2022-09-23T09:37:12.879Z,100.00
2022-09-23T09:39:39.413Z,100.00
2022-09-23T09:42:06.504Z,100.00
2022-09-23T09:44:42.366Z,100.00
2022-09-23T09:47:21.977Z,100.00
2022-09-23T09:49:49.631Z,100.00
2022-09-23T09:52:20.615Z,100.00
2022-09-23T09:54:49.396Z,100.00
2022-09-23T09:57:33.588Z,100.00
2022-09-23T10:00:27.836Z,100.00
2022-09-23T10:03:01.163Z,100.00
2022-09-23T10:05:28.478Z,100.00
2022-09-23T10:07:55.014Z,100.00
2022-09-23T10:10:33.787Z,100.00
2022-09-23T10:13:14.030Z,100.00
2022-09-23T10:15:44.706Z,100.00
2022-09-23T10:18:42.379Z,100.00
2022-09-23T10:21:15.296Z,100.00
2022-09-23T10:23:45.641Z,100.00
2022-09-23T10:26:12.590Z,100.00
2022-09-23T10:28:44.660Z,100.00
2022-09-23T10:31:25.677Z,100.00
2022-09-23T10:33:59.577Z,100.00
2022-09-23T10:36:27.282Z,100.00
2022-09-23T10:39:21.535Z,100.00
2022-09-23T10:42:15.242Z,100.00
2022-09-23T10:45:20.672Z,100.00
2022-09-23T10:48:02.238Z,100.00
2022-09-23T10:50:41.973Z,100.00
2022-09-23T10:53:42.086Z,100.00
2022-09-23T10:56:30.418Z,100.00
2022-09-23T10:59:02.891Z,100.00
2022-09-23T11:01:41.713Z,100.00
2022-09-23T11:04:14.560Z,100.00
2022-09-23T11:07:03.048Z,100.00
2022-09-23T11:09:51.308Z,100.00
2022-09-23T11:12:39.909Z,96.64
2022-09-23T11:15:07.537Z,95.86
2022-09-23T11:18:02.746Z,97.25
2022-09-23T11:21:10.525Z,93.97
2022-09-23T11:23:40.863Z,91.80
2022-09-23T11:26:30.583Z,94.29
2022-09-23T11:29:37.086Z,88.86
2022-09-23T11:32:06.500Z,86.36
2022-09-23T11:34:43.911Z,84.92
2022-09-23T11:37:14.489Z,85.46
2022-09-23T11:39:55.054Z,85.53
2022-09-23T11:42:24.887Z,83.69
2022-09-23T11:45:13.456Z,83.52
2022-09-23T11:48:04.270Z,83.19
2022-09-23T11:50:38.227Z,85.49
2022-09-23T11:53:09.018Z,85.01
2022-09-23T11:55:50.486Z,88.82
2022-09-23T11:58:30.944Z,85.91
2022-09-23T12:01:01.292Z,87.21
2022-09-23T12:04:00.017Z,87.01
2022-09-23T12:06:46.336Z,88.30
2022-09-23T12:09:16.885Z,86.55
2022-09-23T12:11:52.095Z,85.78
2022-09-23T12:14:24.807Z,86.02
2022-09-23T12:17:28.747Z,84.89
2022-09-23T12:20:01.254Z,86.40
2022-09-23T12:22:46.097Z,85.51
2022-09-23T12:25:57.907Z,86.44
2022-09-23T12:28:27.183Z,83.90
2022-09-23T12:30:54.628Z,84.88
2022-09-23T12:33:26.351Z,84.96
2022-09-23T12:36:01.623Z,84.23
2022-09-23T12:38:58.275Z,83.59
2022-09-23T12:41:37.430Z,83.70
2022-09-23T12:44:13.856Z,84.72
2022-09-23T12:46:44.234Z,83.39
2022-09-23T12:49:37.190Z,81.78
2022-09-23T12:52:12.613Z,82.90
2022-09-23T12:54:39.737Z,82.55
2022-09-23T12:57:13.207Z,84.71
2022-09-23T12:59:52.568Z,86.64
2022-09-23T13:02:26.775Z,83.70
2022-09-23T13:05:19.994Z,85.01
2022-09-23T13:07:47.672Z,85.62
2022-09-23T13:10:28.644Z,82.84
2022-09-23T13:12:55.809Z,83.08
2022-09-23T13:15:33.038Z,87.13
2022-09-23T13:18:21.158Z,86.60
2022-09-23T13:20:48.732Z,84.79
2022-09-23T13:23:24.185Z,84.92
2022-09-23T13:25:51.999Z,84.53
2022-09-23T13:28:27.186Z,84.89
2022-09-23T13:30:53.662Z,86.00
2022-09-23T13:33:42.501Z,85.71
2022-09-23T13:36:14.032Z,86.26
2022-09-23T13:38:40.753Z,85.99
2022-09-23T13:41:15.308Z,87.04
2022-09-23T13:43:42.572Z,86.00
2022-09-23T13:46:38.224Z,87.28
2022-09-23T13:49:04.615Z,87.29
2022-09-23T13:51:33.514Z,90.26
2022-09-23T13:54:01.082Z,88.33
2022-09-23T13:56:29.478Z,91.24
2022-09-23T13:59:24.607Z,90.73
2022-09-23T14:01:51.113Z,92.70
2022-09-23T14:04:24.980Z,94.55
2022-09-23T14:06:52.318Z,91.75
2022-09-23T14:09:18.759Z,92.60
2022-09-23T14:11:45.162Z,90.45
2022-09-23T14:14:12.358Z,88.40
2022-09-23T14:16:39.569Z,88.72
2022-09-23T14:19:07.991Z,88.64
2022-09-23T14:21:38.435Z,89.83
2022-09-23T14:24:14.881Z,92.25
2022-09-23T14:27:08.535Z,90.11
2022-09-23T14:29:39.425Z,90.92
2022-09-23T14:32:13.832Z,89.05
2022-09-23T14:35:05.308Z,89.36
2022-09-23T14:37:50.023Z,88.17
2022-09-23T14:40:24.862Z,88.74
2022-09-23T14:43:17.362Z,87.33
2022-09-23T14:45:45.566Z,89.76
2022-09-23T14:48:17.553Z,90.76
2022-09-23T14:50:48.839Z,89.47
2022-09-23T14:53:24.243Z,88.76
2022-09-23T14:55:57.359Z,89.64
2022-09-23T14:58:26.875Z,90.26
2022-09-23T15:01:00.933Z,88.84
2022-09-23T15:03:31.744Z,86.81
2022-09-23T15:06:08.614Z,88.03
2022-09-23T15:08:35.463Z,88.41
2022-09-23T15:11:08.145Z,86.89
2022-09-23T15:13:38.178Z,86.40
2022-09-23T15:16:05.567Z,87.34
2022-09-23T15:18:36.562Z,88.98
2022-09-23T15:21:14.519Z,91.25
2022-09-23T15:23:41.411Z,90.88
2022-09-23T15:26:18.723Z,91.84
2022-09-23T15:28:45.371Z,90.24
2022-09-23T15:31:18.556Z,92.18
2022-09-23T15:33:46.339Z,95.33
2022-09-23T15:36:17.477Z,96.08
2022-09-23T15:38:43.904Z,100.00
2022-09-23T15:41:10.308Z,98.71
2022-09-23T15:43:37.663Z,96.82
2022-09-23T15:46:08.440Z,97.01
2022-09-23T15:48:40.607Z,100.00
2022-09-23T15:51:08.079Z,100.00
2022-09-23T15:53:34.516Z,100.00
2022-09-23T15:56:01.135Z,100.00
2022-09-23T15:58:27.642Z,100.00
2022-09-23T16:00:56.748Z,100.00
2022-09-23T16:03:28.253Z,100.00
2022-09-23T16:05:58.064Z,100.00
2022-09-23T16:08:25.743Z,100.00
2022-09-23T16:10:52.489Z,100.00
2022-09-23T16:13:19.041Z,100.00
2022-09-23T16:15:45.489Z,100.00
2022-09-23T16:18:12.004Z,100.00
2022-09-23T16:20:39.872Z,100.00
2022-09-23T16:23:39.666Z,100.00
2022-09-23T16:26:18.499Z,100.00
2022-09-23T16:28:45.596Z,100.00
2022-09-23T16:31:12.107Z,100.00
2022-09-23T16:33:38.689Z,100.00
2022-09-23T16:36:05.809Z,100.00
2022-09-23T16:38:32.543Z,100.00
2022-09-23T16:41:00.351Z,100.00
2022-09-23T16:43:32.621Z,100.00
2022-09-23T16:45:59.125Z,100.00
2022-09-23T16:48:25.665Z,100.00
2022-09-23T16:50:53.939Z,100.00
2022-09-23T16:53:20.468Z,100.00
2022-09-23T16:55:46.870Z,100.00
2022-09-23T16:58:13.237Z,100.00
2022-09-23T17:00:58.344Z,100.00
2022-09-23T17:03:40.871Z,100.00
2022-09-23T17:06:10.338Z,100.00
2022-09-23T17:08:36.693Z,100.00
2022-09-23T17:11:03.446Z,100.00
2022-09-23T17:13:29.901Z,100.00
2022-09-23T17:15:56.462Z,100.00
2022-09-23T17:18:22.981Z,100.00
2022-09-23T17:21:03.851Z,100.00
2022-09-23T17:23:31.726Z,100.00
2022-09-23T17:25:59.304Z,100.00
2022-09-23T17:28:25.716Z,100.00
2022-09-23T17:30:57.666Z,100.00
2022-09-23T17:33:24.997Z,100.00
2022-09-23T17:35:51.956Z,100.00
2022-09-23T17:38:18.416Z,100.00
2022-09-23T17:40:54.793Z,100.00
2022-09-23T17:43:25.273Z,100.00
2022-09-23T17:45:52.439Z,100.00
2022-09-23T17:48:20.128Z,100.00
2022-09-23T17:51:19.782Z,100.00
2022-09-23T17:53:46.673Z,100.00
2022-09-23T17:56:24.892Z,100.00
2022-09-23T17:58:51.541Z,100.00
2022-09-23T18:01:19.986Z,100.00
2022-09-23T18:03:47.280Z,100.00
2022-09-23T18:06:18.762Z,100.00
2022-09-23T18:08:46.475Z,100.00
2022-09-23T18:11:19.503Z,100.00
2022-09-23T18:13:55.482Z,100.00
2022-09-23T18:16:23.628Z,100.00
2022-09-23T18:18:51.686Z,100.00
2022-09-23T18:21:19.060Z,100.00
2022-09-23T18:23:46.207Z,100.00
2022-09-23T18:26:17.111Z,100.00
2022-09-23T18:28:43.593Z,100.00
2022-09-23T18:31:10.326Z,100.00
2022-09-23T18:33:36.974Z,100.00
2022-09-23T18:36:04.677Z,100.00
2022-09-23T18:38:31.235Z,100.00
2022-09-23T18:40:58.053Z,100.00
2022-09-23T18:43:37.247Z,100.00
2022-09-23T18:46:09.596Z,100.00
2022-09-23T18:48:54.738Z,100.00
2022-09-23T18:51:22.234Z,100.00
2022-09-23T18:53:50.147Z,100.00
2022-09-23T18:56:17.868Z,100.00
2022-09-23T18:58:47.935Z,100.00
2022-09-23T19:01:14.519Z,100.00
2022-09-23T19:03:41.159Z,100.00
2022-09-23T19:06:11.941Z,100.00
2022-09-23T19:08:38.401Z,100.00
2022-09-23T19:11:05.918Z,100.00
2022-09-23T19:13:32.841Z,100.00
2022-09-23T19:16:03.784Z,100.00
2022-09-23T19:18:31.037Z,100.00
2022-09-23T19:21:04.827Z,100.00
2022-09-23T19:23:34.820Z,100.00
2022-09-23T19:26:05.834Z,100.00
2022-09-23T19:28:32.339Z,100.00
2022-09-23T19:30:58.994Z,100.00
2022-09-23T19:33:25.474Z,100.00
2022-09-23T19:35:53.464Z,100.00
2022-09-23T19:38:21.358Z,100.00
2022-09-23T19:40:50.040Z,100.00
2022-09-23T19:43:17.758Z,100.00
2022-09-23T19:45:44.561Z,100.00
2022-09-23T19:48:10.956Z,100.00
2022-09-23T19:50:38.656Z,100.00
2022-09-23T19:53:06.087Z,100.00
2022-09-23T19:55:34.791Z,100.00
2022-09-23T19:58:01.365Z,100.00
2022-09-23T20:00:27.934Z,100.00
2022-09-23T20:02:54.851Z,100.00
2022-09-23T20:05:21.469Z,100.00
2022-09-23T20:07:47.903Z,100.00
2022-09-23T20:10:14.416Z,100.00
2022-09-23T20:12:42.276Z,100.00
2022-09-23T20:15:10.796Z,100.00
2022-09-23T20:17:38.393Z,100.00
2022-09-23T20:20:05.041Z,100.00
2022-09-23T20:22:33.694Z,100.00
2022-09-23T20:25:00.699Z,100.00
2022-09-23T20:27:28.954Z,100.00
2022-09-23T20:29:56.986Z,100.00
2022-09-23T20:32:24.485Z,100.00
2022-09-23T20:34:51.860Z,100.00
2022-09-23T20:37:18.802Z,100.00
2022-09-23T20:39:45.637Z,100.00
2022-09-23T20:42:13.569Z,100.00
2022-09-23T20:44:40.605Z,100.00
2022-09-23T20:47:07.323Z,100.00
2022-09-23T20:49:34.362Z,100.00
2022-09-23T20:52:03.947Z,100.00
2022-09-23T20:54:31.370Z,100.00
2022-09-23T20:56:58.260Z,100.00
2022-09-23T20:59:27.339Z,100.00
2022-09-23T21:01:57.115Z,100.00
2022-09-23T21:04:24.356Z,100.00
2022-09-23T21:06:54.155Z,100.00
2022-09-23T21:09:20.637Z,100.00
2022-09-23T21:11:47.027Z,100.00
2022-09-23T21:14:13.421Z,100.00
2022-09-23T21:16:39.959Z,100.00
2022-09-23T21:19:09.320Z,100.00
2022-09-23T21:21:35.783Z,100.00
2022-09-23T21:24:24.467Z,100.00
2022-09-23T21:26:50.426Z,100.00
2022-09-23T21:29:17.111Z,100.00
2022-09-23T21:31:43.578Z,100.00
2022-09-23T21:34:14.524Z,100.00
2022-09-23T21:36:42.808Z,100.00
2022-09-23T21:39:10.460Z,100.00
2022-09-23T21:41:37.237Z,100.00
2022-09-23T21:44:07.846Z,100.00
2022-09-23T21:46:35.085Z,100.00
2022-09-23T21:49:03.919Z,100.00
2022-09-23T21:51:40.498Z,100.00
2022-09-23T21:54:11.595Z,100.00
2022-09-23T21:56:38.063Z,100.00
2022-09-23T21:59:05.147Z,100.00
2022-09-23T22:01:34.890Z,100.00
2022-09-23T22:04:05.204Z,100.00
2022-09-23T22:06:31.817Z,100.00
2022-09-23T22:09:02.434Z,100.00
2022-09-23T22:11:51.634Z,100.00
2022-09-23T22:14:18.922Z,100.00
2022-09-23T22:16:45.438Z,100.00
2022-09-23T22:19:12.550Z,100.00
2022-09-23T22:21:39.930Z,100.00
2022-09-23T22:24:07.619Z,100.00
2022-09-23T22:26:34.980Z,100.00
2022-09-23T22:29:20.130Z,100.00
2022-09-23T22:32:05.311Z,100.00
2022-09-23T22:34:49.237Z,100.00
2022-09-23T22:37:18.653Z,100.00
2022-09-23T22:39:45.326Z,100.00
2022-09-23T22:42:13.021Z,100.00
2022-09-23T22:44:39.420Z,100.00
2022-09-23T22:47:05.935Z,100.00
2022-09-23T22:49:32.385Z,100.00
2022-09-23T22:51:59.379Z,100.00
2022-09-23T22:54:33.375Z,100.00
2022-09-23T22:57:03.175Z,100.00
2022-09-23T22:59:29.724Z,100.00
2022-09-23T23:01:57.160Z,100.00
2022-09-23T23:04:23.761Z,100.00
2022-09-23T23:06:50.171Z,100.00
2022-09-23T23:09:17.440Z,100.00
2022-09-23T23:11:44.485Z,100.00
2022-09-23T23:14:11.803Z,100.00
2022-09-23T23:16:38.642Z,100.00
2022-09-23T23:19:06.622Z,100.00
2022-09-23T23:21:33.578Z,100.00
2022-09-23T23:24:00.108Z,100.00
2022-09-23T23:26:27.944Z,100.00
2022-09-23T23:28:54.697Z,100.00
2022-09-23T23:31:23.554Z,100.00
2022-09-23T23:33:50.118Z,100.00
2022-09-23T23:36:18.135Z,100.00
2022-09-23T23:38:45.766Z,100.00
2022-09-23T23:41:16.864Z,100.00
2022-09-23T23:43:45.979Z,100.00
2022-09-23T23:46:13.121Z,100.00
2022-09-23T23:48:39.906Z,100.00
2022-09-23T23:51:07.569Z,100.00
2022-09-23T23:53:35.973Z,100.00
2022-09-23T23:56:03.679Z,100.00
2022-09-23T23:58:30.109Z,100.00
